createdAt,value
2018-10-11T00:00:02.999Z,0
2018-10-11T00:01:13.644Z,0
2018-10-11T00:02:23.556Z,0
2018-10-11T00:03:33.758Z,0
2018-10-11T00:04:44.000Z,0
2018-10-11T00:05:53.926Z,0
2018-10-11T00:07:05.719Z,0
2018-10-11T00:08:15.916Z,0
2018-10-11T00:09:25.839Z,0
2018-10-11T00:10:36.029Z,0
2018-10-11T00:11:46.211Z,0
2018-10-11T00:12:56.451Z,0
2018-10-11T00:14:06.358Z,0
2018-10-11T00:15:16.275Z,0
2018-10-11T00:16:26.463Z,0
2018-10-11T00:17:36.648Z,0
2018-10-11T00:18:46.828Z,0
2018-10-11T00:19:57.503Z,0
2018-10-11T00:21:07.840Z,0
2018-10-11T00:22:18.310Z,0
2018-10-11T00:23:28.750Z,0
2018-10-11T00:24:38.946Z,0
2018-10-11T00:25:48.596Z,0
2018-10-11T00:26:58.802Z,0
2018-10-11T00:28:08.710Z,0
2018-10-11T00:29:18.921Z,0
2018-10-11T00:30:28.917Z,0
2018-10-11T00:31:39.154Z,0
2018-10-11T00:32:49.088Z,0
2018-10-11T00:33:59.316Z,0
2018-10-11T00:35:09.527Z,0
2018-10-11T00:36:19.709Z,0
2018-10-11T00:37:29.964Z,0
2018-10-11T00:38:40.147Z,0
2018-10-11T00:39:50.112Z,0
2018-10-11T00:41:00.435Z,0
2018-10-11T00:42:10.412Z,0
2018-10-11T00:43:20.611Z,0
2018-10-11T00:44:30.988Z,0
2018-10-11T00:45:41.172Z,0
2018-10-11T00:46:51.417Z,0
2018-10-11T00:48:03.045Z,0
2018-10-11T00:49:13.250Z,0
2018-10-11T00:50:23.450Z,0
2018-10-11T00:51:33.936Z,0
2018-10-11T00:52:44.151Z,0
2018-10-11T00:53:54.397Z,0
2018-10-11T00:55:04.354Z,0
2018-10-11T00:56:14.548Z,0
2018-10-11T00:57:24.473Z,0
2018-10-11T00:58:34.399Z,0
2018-10-11T00:59:44.580Z,0
2018-10-11T01:00:54.768Z,0
2018-10-11T01:02:04.968Z,0
2018-10-11T01:03:14.996Z,0
2018-10-11T01:04:24.943Z,0
2018-10-11T01:05:35.128Z,0
2018-10-11T01:06:45.056Z,0
2018-10-11T01:07:54.990Z,0
2018-10-11T01:09:05.239Z,0
2018-10-11T01:10:15.152Z,0
2018-10-11T01:11:25.382Z,0
2018-10-11T01:12:35.413Z,0
2018-10-11T01:13:45.600Z,0
2018-10-11T01:14:55.850Z,0
2018-10-11T01:16:06.031Z,0
2018-10-11T01:17:16.216Z,0
2018-10-11T01:18:26.520Z,0
2018-10-11T01:19:36.645Z,0
2018-10-11T01:20:46.585Z,0
2018-10-11T01:21:56.769Z,0
2018-10-11T01:23:06.965Z,0
2018-10-11T01:24:17.165Z,0
2018-10-11T01:25:27.364Z,0
2018-10-11T01:26:37.653Z,0
2018-10-11T01:27:47.857Z,0
2018-10-11T01:28:58.069Z,0
2018-10-11T01:30:08.954Z,0
2018-10-11T01:31:18.905Z,0
2018-10-11T01:32:29.091Z,0
2018-10-11T01:33:39.287Z,0
2018-10-11T01:34:49.528Z,0
2018-10-11T01:35:59.689Z,0
2018-10-11T01:37:09.892Z,0
2018-10-11T01:38:19.832Z,0
2018-10-11T01:39:30.100Z,0
2018-10-11T01:40:40.299Z,0
2018-10-11T01:41:50.483Z,0
2018-10-11T01:43:00.710Z,0
2018-10-11T01:44:10.898Z,0
2018-10-11T01:45:21.092Z,0
2018-10-11T01:46:31.290Z,0
2018-10-11T01:47:41.434Z,0
2018-10-11T01:48:51.625Z,0
2018-10-11T01:50:01.872Z,0
2018-10-11T01:51:12.072Z,0
2018-10-11T01:52:22.314Z,0
2018-10-11T01:53:32.544Z,0
2018-10-11T01:54:42.466Z,0
2018-10-11T01:55:52.714Z,0
2018-10-11T01:57:04.300Z,0
2018-10-11T01:58:13.966Z,0
2018-10-11T01:59:24.382Z,0
2018-10-11T02:00:34.581Z,0
2018-10-11T02:01:44.806Z,0
2018-10-11T02:02:54.715Z,0
2018-10-11T02:04:04.627Z,0
2018-10-11T02:05:14.494Z,0
2018-10-11T02:06:24.456Z,0
2018-10-11T02:07:34.745Z,0
2018-10-11T02:08:44.937Z,0
2018-10-11T02:09:55.141Z,0
2018-10-11T02:11:05.340Z,0
2018-10-11T02:12:15.237Z,0
2018-10-11T02:13:25.417Z,0
2018-10-11T02:14:35.585Z,0
2018-10-11T02:15:45.768Z,0
2018-10-11T02:16:55.959Z,0
2018-10-11T02:18:06.417Z,0
2018-10-11T02:19:16.583Z,0
2018-10-11T02:20:26.482Z,0
2018-10-11T02:21:36.396Z,0
2018-10-11T02:22:46.591Z,0
2018-10-11T02:23:56.776Z,0
2018-10-11T02:25:07.887Z,0
2018-10-11T02:26:18.105Z,0
2018-10-11T02:27:28.050Z,0
2018-10-11T02:28:38.302Z,0
2018-10-11T02:29:48.269Z,0
2018-10-11T02:30:58.455Z,0
2018-10-11T02:32:10.267Z,0
2018-10-11T02:33:20.541Z,0
2018-10-11T02:34:30.717Z,0
2018-10-11T02:35:40.917Z,0
2018-10-11T02:36:50.897Z,0
2018-10-11T02:38:03.126Z,0
2018-10-11T02:39:13.713Z,0
2018-10-11T02:40:23.925Z,0
2018-10-11T02:41:33.844Z,0
2018-10-11T02:42:44.140Z,0
2018-10-11T02:43:54.056Z,0
2018-10-11T02:45:04.200Z,0
2018-10-11T02:46:14.398Z,0
2018-10-11T02:47:24.317Z,0
2018-10-11T02:48:34.531Z,0
2018-10-11T02:49:44.718Z,0
2018-10-11T02:50:54.921Z,0
2018-10-11T02:52:04.838Z,0
2018-10-11T02:53:14.792Z,0
2018-10-11T02:54:26.039Z,0
2018-10-11T02:55:36.238Z,0
2018-10-11T02:56:45.625Z,0
2018-10-11T02:57:55.807Z,0
2018-10-11T02:59:08.008Z,0
2018-10-11T03:00:18.259Z,0
2018-10-11T03:01:28.439Z,0
2018-10-11T03:02:38.428Z,0
2018-10-11T03:34:58.131Z,0
2018-10-11T03:36:08.632Z,0
2018-10-11T03:37:18.899Z,0
2018-10-11T03:38:29.092Z,0
2018-10-11T03:39:39.283Z,0
2018-10-11T03:40:49.279Z,0
2018-10-11T03:41:59.499Z,0
2018-10-11T03:43:10.842Z,0
2018-10-11T03:44:21.024Z,0
2018-10-11T03:45:31.211Z,0
2018-10-11T03:46:42.136Z,0
2018-10-11T03:47:52.499Z,0
2018-10-11T03:49:02.751Z,0
2018-10-11T03:50:12.928Z,0
2018-10-11T03:51:22.588Z,0
2018-10-11T03:52:32.501Z,0
2018-10-11T03:53:42.689Z,0
2018-10-11T03:54:52.882Z,0
2018-10-11T03:56:03.073Z,0
2018-10-11T03:57:12.987Z,0
2018-10-11T03:58:22.916Z,0
2018-10-11T03:59:33.128Z,0
2018-10-11T04:00:43.319Z,0
2018-10-11T04:01:53.768Z,0
2018-10-11T04:03:03.967Z,0
2018-10-11T04:04:14.139Z,0
2018-10-11T04:05:24.291Z,0
2018-10-11T04:06:34.456Z,0
2018-10-11T04:07:45.008Z,0
2018-10-11T04:08:55.229Z,0
2018-10-11T04:10:07.537Z,0
2018-10-11T04:11:17.636Z,0
2018-10-11T04:12:27.715Z,0
2018-10-11T04:13:37.595Z,0
2018-10-11T04:14:47.662Z,0
2018-10-11T04:15:57.526Z,0
2018-10-11T04:17:08.618Z,0
2018-10-11T04:18:18.504Z,0
2018-10-11T04:19:28.683Z,0
2018-10-11T04:20:38.755Z,0
2018-10-11T04:21:49.062Z,0
2018-10-11T04:22:59.161Z,0
2018-10-11T04:24:09.456Z,0
2018-10-11T04:25:19.521Z,0
2018-10-11T04:26:29.335Z,0
2018-10-11T04:27:39.675Z,0
2018-10-11T04:28:49.752Z,0
2018-10-11T04:30:00.011Z,0
2018-10-11T04:31:12.256Z,0
2018-10-11T04:32:22.397Z,0
2018-10-11T04:33:32.231Z,0
2018-10-11T04:34:41.794Z,0
2018-10-11T04:35:51.854Z,0
2018-10-11T04:37:01.932Z,0
2018-10-11T04:38:12.013Z,0
2018-10-11T04:39:22.083Z,0
2018-10-11T04:40:32.173Z,0
2018-10-11T04:41:42.251Z,0
2018-10-11T04:42:53.075Z,0
2018-10-11T04:44:02.986Z,0
2018-10-11T04:45:13.141Z,0
2018-10-11T04:46:23.481Z,0
2018-10-11T04:47:33.761Z,0
2018-10-11T04:48:43.327Z,0
2018-10-11T04:49:53.305Z,0
2018-10-11T04:51:03.441Z,0
2018-10-11T04:52:13.509Z,0
2018-10-11T04:53:23.352Z,0
2018-10-11T04:54:33.470Z,0
2018-10-11T04:55:43.303Z,0
2018-10-11T04:56:53.199Z,0
2018-10-11T04:58:05.321Z,0
2018-10-11T04:59:15.447Z,0
2018-10-11T05:00:25.005Z,0
2018-10-11T05:01:34.808Z,0
2018-10-11T05:02:44.910Z,0
2018-10-11T05:03:54.973Z,0
2018-10-11T05:05:07.168Z,0
2018-10-11T05:06:17.261Z,0
2018-10-11T05:07:27.389Z,0
2018-10-11T05:08:37.468Z,5
2018-10-11T05:09:47.532Z,5
2018-10-11T05:10:57.354Z,5
2018-10-11T05:12:07.537Z,5
2018-10-11T05:13:17.840Z,5
2018-10-11T05:14:27.710Z,5
2018-10-11T05:15:38.073Z,5
2018-10-11T05:16:48.143Z,10
2018-10-11T05:17:58.208Z,10
2018-10-11T05:19:08.276Z,10
2018-10-11T05:20:18.161Z,10
2018-10-11T05:21:28.512Z,10
2018-10-11T05:22:38.619Z,15
2018-10-11T05:23:48.713Z,15
2018-10-11T05:24:58.538Z,15
2018-10-11T05:26:09.026Z,15
2018-10-11T05:27:19.117Z,15
2018-10-11T05:28:29.220Z,20
2018-10-11T05:29:39.352Z,20
2018-10-11T05:30:49.159Z,20
2018-10-11T05:31:59.299Z,20
2018-10-11T05:33:09.099Z,25
2018-10-11T05:34:18.974Z,25
2018-10-11T05:35:29.101Z,25
2018-10-11T05:36:38.917Z,25
2018-10-11T05:37:49.040Z,30
2018-10-11T05:38:58.934Z,30
2018-10-11T05:40:09.016Z,30
2018-10-11T05:41:19.100Z,30
2018-10-11T05:42:29.178Z,35
2018-10-11T05:43:39.311Z,35
2018-10-11T05:44:49.393Z,35
2018-10-11T05:45:59.531Z,35
2018-10-11T05:47:09.632Z,40
2018-10-11T05:48:19.808Z,40
2018-10-11T05:49:29.567Z,40
2018-10-11T05:50:39.371Z,40
2018-10-11T05:51:49.466Z,45
2018-10-11T05:52:59.553Z,45
2018-10-11T05:54:09.623Z,45
2018-10-11T05:55:19.817Z,45
2018-10-11T05:56:29.809Z,45
2018-10-11T05:57:39.678Z,50
2018-10-11T05:58:49.800Z,50
2018-10-11T05:59:59.866Z,50
2018-10-11T06:01:12.840Z,50
2018-10-11T06:02:22.673Z,50
2018-10-11T06:03:32.775Z,50
2018-10-11T06:04:42.869Z,50
2018-10-11T06:05:52.939Z,50
2018-10-11T06:07:03.409Z,55
2018-10-11T06:08:13.489Z,55
2018-10-11T06:09:23.562Z,55
2018-10-11T06:10:33.633Z,55
2018-10-11T06:11:43.748Z,60
2018-10-11T06:12:53.828Z,60
2018-10-11T06:14:03.912Z,60
2018-10-11T06:15:13.723Z,60
2018-10-11T06:16:23.796Z,65
2018-10-11T06:17:33.922Z,65
2018-10-11T06:18:43.843Z,65
2018-10-11T06:19:53.941Z,65
2018-10-11T06:21:04.034Z,70
2018-10-11T06:22:13.848Z,70
2018-10-11T06:23:23.924Z,70
2018-10-11T06:24:34.057Z,70
2018-10-11T06:25:44.180Z,70
2018-10-11T06:26:54.270Z,75
2018-10-11T06:28:04.096Z,75
2018-10-11T06:29:14.289Z,75
2018-10-11T06:30:24.831Z,75
2018-10-11T06:31:35.009Z,75
2018-10-11T06:32:45.129Z,75
2018-10-11T06:33:55.230Z,80
2018-10-11T06:35:05.322Z,80
2018-10-11T06:36:15.362Z,80
2018-10-11T06:37:25.476Z,80
2018-10-11T06:38:35.908Z,80
2018-10-11T06:39:46.017Z,85
2018-10-11T06:40:56.286Z,85
2018-10-11T06:42:06.581Z,85
2018-10-11T06:43:15.866Z,85
2018-10-11T06:44:25.967Z,85
2018-10-11T06:45:36.087Z,90
2018-10-11T06:46:45.625Z,90
2018-10-11T06:47:55.720Z,90
2018-10-11T06:49:05.819Z,90
2018-10-11T06:50:16.758Z,90
2018-10-11T06:51:26.934Z,90
2018-10-11T06:52:37.026Z,95
2018-10-11T06:53:46.656Z,95
2018-10-11T06:54:56.985Z,95
2018-10-11T06:56:07.687Z,95
2018-10-11T06:57:17.858Z,100
2018-10-11T06:58:27.663Z,100
2018-10-11T06:59:37.777Z,100
2018-10-11T07:00:47.858Z,100
2018-10-11T07:01:58.589Z,100
2018-10-11T07:03:08.518Z,100
2018-10-11T07:04:18.606Z,105
2018-10-11T07:05:28.692Z,105
2018-10-11T07:06:38.805Z,105
2018-10-11T07:07:48.895Z,105
2018-10-11T07:08:59.048Z,105
2018-10-11T07:10:10.646Z,105
2018-10-11T07:11:20.731Z,105
2018-10-11T07:12:30.824Z,105
2018-10-11T07:13:40.925Z,105
2018-10-11T07:14:50.777Z,105
2018-10-11T07:16:01.481Z,105
2018-10-11T07:17:11.643Z,105
2018-10-11T07:18:21.779Z,110
2018-10-11T07:19:32.590Z,110
2018-10-11T07:20:42.736Z,110
2018-10-11T07:21:52.818Z,110
2018-10-11T07:23:02.932Z,110
2018-10-11T07:24:13.020Z,115
2018-10-11T07:25:23.164Z,115
2018-10-11T07:26:33.028Z,115
2018-10-11T07:27:43.346Z,115
2018-10-11T07:28:53.440Z,115
2018-10-11T07:30:03.539Z,115
2018-10-11T07:31:13.110Z,120
2018-10-11T07:32:23.201Z,120
2018-10-11T07:33:33.077Z,120
2018-10-11T07:34:43.864Z,120
2018-10-11T07:35:53.517Z,120
2018-10-11T07:37:03.603Z,120
2018-10-11T07:38:13.154Z,120
2018-10-11T07:39:23.289Z,125
2018-10-11T07:40:33.982Z,125
2018-10-11T07:41:43.808Z,125
2018-10-11T07:42:53.903Z,125
2018-10-11T07:44:03.988Z,125
2018-10-11T07:45:14.129Z,125
2018-10-11T07:46:24.210Z,130
2018-10-11T07:47:34.032Z,130
2018-10-11T07:48:44.138Z,130
2018-10-11T07:49:54.511Z,130
2018-10-11T07:51:04.129Z,130
2018-10-11T07:52:13.995Z,130
2018-10-11T07:53:24.078Z,130
2018-10-11T07:54:34.166Z,130
2018-10-11T07:55:44.004Z,135
2018-10-11T07:56:54.151Z,135
2018-10-11T07:58:05.218Z,135
2018-10-11T07:59:15.327Z,135
2018-10-11T08:00:25.408Z,135
2018-10-11T08:01:35.381Z,135
2018-10-11T08:02:45.472Z,135
2018-10-11T08:03:55.530Z,135
2018-10-11T08:05:05.597Z,135
2018-10-11T08:06:15.724Z,135
2018-10-11T08:07:26.564Z,140
2018-10-11T08:08:37.440Z,140
2018-10-11T08:09:47.652Z,140
2018-10-11T08:10:58.793Z,140
2018-10-11T08:12:10.079Z,140
2018-10-11T08:13:20.409Z,140
2018-10-11T08:14:30.342Z,140
2018-10-11T08:15:39.878Z,145
2018-10-11T08:16:51.182Z,145
2018-10-11T08:18:04.093Z,145
2018-10-11T08:19:15.651Z,145
2018-10-11T08:20:25.507Z,145
2018-10-11T08:21:35.875Z,145
2018-10-11T08:22:45.424Z,145
2018-10-11T08:23:55.246Z,145
2018-10-11T08:25:05.441Z,145
2018-10-11T08:26:18.494Z,145
2018-10-11T08:27:29.245Z,150
2018-10-11T08:28:39.328Z,150
2018-10-11T08:29:49.468Z,150
2018-10-11T08:30:59.598Z,150
2018-10-11T08:32:09.630Z,150
2018-10-11T08:33:20.519Z,150
2018-10-11T08:34:30.592Z,150
2018-10-11T08:35:40.428Z,150
2018-10-11T08:36:50.566Z,150
2018-10-11T08:38:04.015Z,155
2018-10-11T08:39:14.239Z,155
2018-10-11T08:40:24.059Z,155
2018-10-11T08:41:34.151Z,155
2018-10-11T08:42:44.001Z,155
2018-10-11T08:43:54.499Z,155
2018-10-11T08:45:04.664Z,155
2018-10-11T08:46:14.789Z,155
2018-10-11T08:47:24.886Z,155
2018-10-11T08:48:35.227Z,155
2018-10-11T08:49:45.342Z,155
2018-10-11T08:50:56.028Z,155
2018-10-11T08:52:06.751Z,155
2018-10-11T08:53:16.826Z,155
2018-10-11T08:54:26.910Z,155
2018-10-11T08:55:38.041Z,155
2018-10-11T08:56:48.216Z,155
2018-10-11T08:57:58.825Z,155
2018-10-11T08:59:08.805Z,155
2018-10-11T09:00:18.444Z,155
2018-10-11T09:01:28.564Z,160
2018-10-11T09:02:38.667Z,160
2018-10-11T09:03:49.255Z,160
2018-10-11T09:04:58.947Z,160
2018-10-11T09:06:08.821Z,160
2018-10-11T09:07:18.980Z,160
2018-10-11T09:08:29.063Z,160
2018-10-11T09:09:39.661Z,160
2018-10-11T09:10:50.041Z,160
2018-10-11T09:12:00.361Z,160
2018-10-11T09:13:09.933Z,160
2018-10-11T09:14:20.007Z,160
2018-10-11T09:15:30.111Z,165
2018-10-11T09:16:40.217Z,165
2018-10-11T09:17:50.042Z,160
2018-10-11T09:19:00.325Z,165
2018-10-11T09:20:10.439Z,165
2018-10-11T09:21:20.905Z,165
2018-10-11T09:22:30.794Z,165
2018-10-11T09:23:40.881Z,165
2018-10-11T09:24:50.987Z,165
2018-10-11T09:26:01.100Z,165
2018-10-11T09:27:11.196Z,165
2018-10-11T09:28:21.282Z,165
2018-10-11T09:29:31.446Z,165
2018-10-11T09:30:41.747Z,170
2018-10-11T09:31:51.830Z,170
2018-10-11T09:33:01.931Z,170
2018-10-11T09:34:12.045Z,170
2018-10-11T09:35:22.135Z,170
2018-10-11T09:36:32.253Z,170
2018-10-11T09:37:42.136Z,170
2018-10-11T09:38:51.948Z,170
2018-10-11T09:40:02.039Z,175
2018-10-11T09:41:12.131Z,170
2018-10-11T09:42:22.278Z,170
2018-10-11T09:43:32.350Z,170
2018-10-11T09:44:42.464Z,170
2018-10-11T09:45:52.298Z,170
2018-10-11T09:47:02.378Z,170
2018-10-11T09:48:12.966Z,170
2018-10-11T09:49:23.045Z,170
2018-10-11T09:50:33.142Z,170
2018-10-11T09:51:43.250Z,170
2018-10-11T09:52:53.335Z,170
2018-10-11T09:54:03.893Z,175
2018-10-11T09:55:13.979Z,175
2018-10-11T09:56:24.490Z,170
2018-10-11T09:57:34.572Z,175
2018-10-11T09:58:44.494Z,175
2018-10-11T09:59:54.638Z,175
2018-10-11T10:01:04.735Z,175
2018-10-11T10:02:14.984Z,175
2018-10-11T10:03:25.133Z,175
2018-10-11T10:04:34.696Z,175
2018-10-11T10:05:45.136Z,175
2018-10-11T10:06:55.218Z,175
2018-10-11T10:08:07.121Z,175
2018-10-11T10:09:17.284Z,175
2018-10-11T10:10:28.076Z,175
2018-10-11T10:11:41.947Z,175
2018-10-11T10:12:53.378Z,175
2018-10-11T10:14:04.978Z,175
2018-10-11T10:15:15.090Z,175
2018-10-11T10:16:25.187Z,175
2018-10-11T10:17:35.005Z,175
2018-10-11T10:18:45.297Z,175
2018-10-11T10:19:54.871Z,175
2018-10-11T10:21:04.956Z,175
2018-10-11T10:22:14.770Z,175
2018-10-11T10:23:24.370Z,175
2018-10-11T10:24:36.727Z,175
2018-10-11T10:25:48.728Z,175
2018-10-11T10:26:59.217Z,175
2018-10-11T10:28:09.357Z,175
2018-10-11T10:29:19.580Z,175
2018-10-11T10:30:29.410Z,175
2018-10-11T10:31:39.256Z,175
2018-10-11T10:32:48.824Z,180
2018-10-11T10:33:59.205Z,180
2018-10-11T10:35:09.417Z,180
2018-10-11T10:36:19.272Z,180
2018-10-11T10:37:29.355Z,180
2018-10-11T10:38:39.460Z,175
2018-10-11T10:39:49.499Z,180
2018-10-11T10:40:59.639Z,180
2018-10-11T10:42:09.704Z,180
2018-10-11T10:43:19.796Z,180
2018-10-11T10:44:29.618Z,185
2018-10-11T10:45:39.444Z,180
2018-10-11T10:46:49.628Z,180
2018-10-11T10:47:59.691Z,180
2018-10-11T10:49:09.890Z,180
2018-10-11T10:50:19.993Z,180
2018-10-11T10:51:30.125Z,175
2018-10-11T10:52:40.071Z,180
2018-10-11T10:53:50.261Z,180
2018-10-11T10:55:03.582Z,185
2018-10-11T10:56:13.685Z,180
2018-10-11T10:57:23.758Z,180
2018-10-11T10:58:33.888Z,180
2018-10-11T10:59:43.727Z,180
2018-10-11T11:00:53.907Z,180
2018-10-11T11:02:04.005Z,185
2018-10-11T11:03:13.828Z,180
2018-10-11T11:04:24.023Z,180
2018-10-11T11:05:34.118Z,180
2018-10-11T11:06:44.209Z,180
2018-10-11T11:07:54.050Z,180
2018-10-11T11:09:04.141Z,180
2018-10-11T11:10:14.227Z,180
2018-10-11T11:11:24.058Z,180
2018-10-11T11:12:34.166Z,180
2018-10-11T11:13:44.426Z,180
2018-10-11T11:14:54.520Z,180
2018-10-11T11:16:04.391Z,180
2018-10-11T11:17:14.479Z,180
2018-10-11T11:18:24.582Z,180
2018-10-11T11:19:34.683Z,180
2018-10-11T11:20:44.766Z,180
2018-10-11T11:21:54.919Z,180
2018-10-11T11:23:05.200Z,185
2018-10-11T11:24:15.062Z,185
2018-10-11T11:25:25.549Z,180
2018-10-11T11:26:35.656Z,185
2018-10-11T11:27:45.740Z,185
2018-10-11T11:28:55.883Z,185
2018-10-11T11:30:06.528Z,185
2018-10-11T11:31:16.947Z,185
2018-10-11T11:32:27.052Z,185
2018-10-11T11:33:37.224Z,185
2018-10-11T11:34:47.564Z,185
2018-10-11T11:35:57.650Z,185
2018-10-11T11:37:08.966Z,185
2018-10-11T11:38:18.992Z,185
2018-10-11T11:39:29.188Z,185
2018-10-11T11:40:39.319Z,185
2018-10-11T11:41:49.421Z,185
2018-10-11T11:42:59.524Z,185
2018-10-11T11:44:09.651Z,185
2018-10-11T11:45:19.738Z,185
2018-10-11T11:46:29.869Z,185
2018-10-11T11:47:39.952Z,185
2018-10-11T11:48:50.182Z,185
2018-10-11T11:50:03.333Z,185
2018-10-11T11:51:13.199Z,185
2018-10-11T11:52:23.381Z,185
2018-10-11T11:53:33.501Z,185
2018-10-11T11:54:43.586Z,185
2018-10-11T11:55:53.426Z,185
2018-10-11T11:57:05.020Z,185
2018-10-11T11:58:15.144Z,185
2018-10-11T11:59:25.375Z,185
2018-10-11T12:00:35.474Z,185
2018-10-11T12:01:45.590Z,190
2018-10-11T12:02:56.142Z,185
2018-10-11T12:04:06.473Z,185
2018-10-11T12:05:17.149Z,185
2018-10-11T12:06:27.360Z,185
2018-10-11T12:07:37.910Z,185
2018-10-11T12:08:48.026Z,185
2018-10-11T12:09:58.124Z,185
2018-10-11T12:11:08.265Z,185
2018-10-11T12:12:18.387Z,185
2018-10-11T12:13:28.225Z,180
2018-10-11T12:14:38.383Z,185
2018-10-11T12:15:48.623Z,185
2018-10-11T12:16:58.503Z,180
2018-10-11T12:18:08.581Z,180
2018-10-11T12:19:18.508Z,185
2018-10-11T12:20:28.599Z,180
2018-10-11T12:21:38.708Z,180
2018-10-11T12:22:48.793Z,180
2018-10-11T12:23:58.630Z,180
2018-10-11T12:25:08.888Z,180
2018-10-11T12:26:19.114Z,180
2018-10-11T12:27:28.977Z,180
2018-10-11T12:28:40.013Z,175
2018-10-11T12:29:50.159Z,175
2018-10-11T12:31:00.019Z,175
2018-10-11T12:32:10.116Z,175
2018-10-11T12:33:19.948Z,175
2018-10-11T12:34:30.037Z,180
2018-10-11T12:35:40.267Z,175
2018-10-11T12:36:50.733Z,175
2018-10-11T12:38:01.020Z,170
2018-10-11T12:39:12.768Z,170
2018-10-11T12:40:23.508Z,170
2018-10-11T12:41:33.950Z,170
2018-10-11T12:42:44.660Z,170
2018-10-11T12:43:55.077Z,165
2018-10-11T12:45:05.253Z,165
2018-10-11T12:46:15.412Z,165
2018-10-11T12:47:25.742Z,165
2018-10-11T12:48:35.818Z,165
2018-10-11T12:49:55.423Z,165
2018-10-11T12:51:05.549Z,160
2018-10-11T12:52:16.416Z,160
2018-10-11T12:53:26.680Z,160
2018-10-11T12:54:36.843Z,160
2018-10-11T12:55:46.954Z,160
2018-10-11T12:56:57.934Z,160
2018-10-11T12:58:08.106Z,160
2018-10-11T12:59:18.203Z,155
2018-10-11T13:00:28.040Z,160
2018-10-11T13:01:38.157Z,155
2018-10-11T13:02:48.803Z,155
2018-10-11T13:03:58.975Z,155
2018-10-11T13:05:09.055Z,155
2018-10-11T13:06:18.901Z,155
2018-10-11T13:07:29.055Z,150
2018-10-11T13:08:39.152Z,155
2018-10-11T13:09:49.341Z,150
2018-10-11T13:10:59.168Z,150
2018-10-11T13:12:09.312Z,150
2018-10-11T13:13:19.837Z,150
2018-10-11T13:14:29.954Z,150
2018-10-11T13:15:39.985Z,150
2018-10-11T13:16:50.088Z,145
2018-10-11T13:18:02.631Z,150
2018-10-11T13:19:12.745Z,145
2018-10-11T13:20:22.866Z,145
2018-10-11T13:21:32.702Z,145
2018-10-11T13:22:42.813Z,145
2018-10-11T13:23:52.959Z,145
2018-10-11T13:25:04.456Z,145
2018-10-11T13:26:14.552Z,145
2018-10-11T13:27:24.637Z,140
2018-10-11T13:28:34.464Z,145
2018-10-11T13:29:44.627Z,145
2018-10-11T13:30:54.757Z,145
2018-10-11T13:32:05.120Z,145
2018-10-11T13:33:15.229Z,140
2018-10-11T13:34:24.784Z,145
2018-10-11T13:35:35.148Z,140
2018-10-11T13:36:45.258Z,140
2018-10-11T13:37:55.099Z,140
2018-10-11T13:39:05.273Z,140
2018-10-11T13:40:15.146Z,140
2018-10-11T13:41:26.088Z,140
2018-10-11T13:42:36.370Z,140
2018-10-11T13:43:46.472Z,140
2018-10-11T13:44:56.590Z,140
2018-10-11T13:46:11.281Z,140
2018-10-11T13:47:21.750Z,140
2018-10-11T13:48:31.935Z,135
2018-10-11T13:49:42.048Z,135
2018-10-11T13:50:52.159Z,135
2018-10-11T13:52:01.991Z,135
2018-10-11T13:53:20.394Z,135
2018-10-11T13:54:30.712Z,135
2018-10-11T13:55:41.528Z,135
2018-10-11T13:57:07.846Z,135
2018-10-11T13:58:18.067Z,135
2018-10-11T13:59:28.162Z,135
2018-10-11T14:00:38.262Z,130
2018-10-11T14:01:48.095Z,130
2018-10-11T14:02:58.473Z,130
2018-10-11T14:04:08.303Z,130
2018-10-11T14:05:18.391Z,130
2018-10-11T14:06:28.211Z,130
2018-10-11T14:07:38.061Z,130
2018-10-11T14:08:48.318Z,125
2018-10-11T14:09:58.427Z,125
2018-10-11T14:11:09.695Z,125
2018-10-11T14:12:19.792Z,120
2018-10-11T14:13:30.466Z,120
2018-10-11T14:14:40.662Z,115
2018-10-11T14:15:50.546Z,115
2018-10-11T14:17:03.223Z,115
2018-10-11T14:18:20.033Z,110
2018-10-11T14:19:30.384Z,110
2018-10-11T14:20:40.028Z,110
2018-10-11T14:21:50.139Z,110
2018-10-11T14:23:00.386Z,105
2018-10-11T14:24:10.762Z,105
2018-10-11T14:25:23.621Z,105
2018-10-11T14:26:36.854Z,105
2018-10-11T14:27:49.645Z,100
2018-10-11T14:29:03.031Z,100
2018-10-11T14:30:16.321Z,100
2018-10-11T14:31:29.061Z,100
2018-10-11T14:32:42.242Z,95
2018-10-11T14:33:55.834Z,95
2018-10-11T14:35:09.363Z,95
2018-10-11T14:36:23.183Z,95
2018-10-11T14:37:36.523Z,95
2018-10-11T14:38:47.989Z,90
2018-10-11T14:40:02.937Z,90
2018-10-11T14:41:17.507Z,90
2018-10-11T14:42:28.515Z,90
2018-10-11T14:43:38.837Z,90
2018-10-11T14:44:49.012Z,90
2018-10-11T14:45:59.155Z,85
2018-10-11T14:47:10.289Z,85
2018-10-11T14:48:20.698Z,85
2018-10-11T14:49:30.334Z,85
2018-10-11T14:50:40.518Z,85
2018-10-11T14:51:56.110Z,85
2018-10-11T14:53:07.564Z,85
2018-10-11T14:54:18.497Z,80
2018-10-11T14:55:29.330Z,80
2018-10-11T14:56:40.538Z,80
2018-10-11T14:57:51.273Z,75
2018-10-11T14:59:01.830Z,75
2018-10-11T15:00:12.191Z,75
2018-10-11T15:01:22.669Z,70
2018-10-11T15:02:33.111Z,70
2018-10-11T15:03:43.226Z,70
2018-10-11T15:04:53.655Z,65
2018-10-11T15:06:04.839Z,65
2018-10-11T15:07:15.452Z,65
2018-10-11T15:08:26.042Z,65
2018-10-11T15:09:36.727Z,60
2018-10-11T15:10:48.098Z,60
2018-10-11T15:11:59.885Z,60
2018-10-11T15:13:11.162Z,60
2018-10-11T15:14:21.723Z,55
2018-10-11T15:15:32.367Z,55
2018-10-11T15:16:42.554Z,55
2018-10-11T15:17:53.455Z,50
2018-10-11T15:19:03.891Z,50
2018-10-11T15:20:14.114Z,50
2018-10-11T15:21:24.517Z,50
2018-10-11T15:22:34.877Z,45
2018-10-11T15:23:45.323Z,45
2018-10-11T15:24:55.778Z,45
2018-10-11T15:26:05.905Z,45
2018-10-11T15:27:15.930Z,45
2018-10-11T15:28:26.353Z,45
2018-10-11T15:29:37.044Z,40
2018-10-11T15:30:47.630Z,40
2018-10-11T15:31:58.048Z,40
2018-10-11T15:33:08.780Z,40
2018-10-11T15:34:18.742Z,35
2018-10-11T15:35:28.929Z,35
2018-10-11T15:36:39.420Z,35
2018-10-11T15:37:49.612Z,35
2018-10-11T15:38:59.897Z,30
2018-10-11T15:40:10.165Z,30
2018-10-11T15:41:20.720Z,30
2018-10-11T15:42:31.251Z,30
2018-10-11T15:43:41.466Z,25
2018-10-11T15:44:51.896Z,25
2018-10-11T15:46:02.057Z,25
2018-10-11T15:47:12.362Z,25
2018-10-11T15:48:22.378Z,20
2018-10-11T15:49:32.309Z,20
2018-10-11T15:50:42.453Z,20
2018-10-11T15:51:52.610Z,20
2018-10-11T15:53:02.483Z,15
2018-10-11T15:54:12.598Z,15
2018-10-11T15:55:22.706Z,15
2018-10-11T15:56:32.831Z,15
2018-10-11T15:57:43.017Z,15
2018-10-11T15:58:53.172Z,10
2018-10-11T16:00:05.717Z,10
2018-10-11T16:01:15.563Z,10
2018-10-11T16:02:25.706Z,10
2018-10-11T16:03:35.875Z,10
2018-10-11T16:04:46.105Z,10
2018-10-11T16:05:56.384Z,5
2018-10-11T16:07:08.002Z,5
2018-10-11T16:08:17.861Z,5
2018-10-11T16:09:28.483Z,5
2018-10-11T16:10:38.636Z,5
2018-10-11T16:11:48.506Z,5
2018-10-11T16:12:58.596Z,5
2018-10-11T16:14:08.703Z,0
2018-10-11T16:15:18.828Z,0
2018-10-11T16:16:28.721Z,0
2018-10-11T16:17:39.077Z,0
2018-10-11T16:18:48.843Z,0
2018-10-11T16:19:58.682Z,0
2018-10-11T16:21:09.211Z,0
2018-10-11T16:22:18.805Z,0
2018-10-11T16:23:28.910Z,0
2018-10-11T16:24:39.149Z,0
2018-10-11T16:25:49.492Z,0
2018-10-11T16:26:59.586Z,0
2018-10-11T16:28:09.678Z,0
2018-10-11T16:29:19.769Z,0
2018-10-11T16:30:30.188Z,0
2018-10-11T16:31:40.308Z,0
2018-10-11T16:32:50.468Z,0
2018-10-11T16:34:00.691Z,0
2018-10-11T16:35:10.594Z,0
2018-10-11T16:36:20.705Z,0
2018-10-11T16:37:30.786Z,0
2018-10-11T16:38:40.891Z,0
2018-10-11T16:39:51.108Z,0
2018-10-11T16:41:01.207Z,0
2018-10-11T16:42:11.338Z,0
2018-10-11T16:43:21.431Z,0
2018-10-11T16:44:31.307Z,0
2018-10-11T16:45:41.408Z,0
2018-10-11T16:46:51.252Z,0
2018-10-11T16:48:01.378Z,0
2018-10-11T16:49:12.608Z,0
2018-10-11T16:50:22.940Z,0
2018-10-11T16:51:33.127Z,0
2018-10-11T16:52:43.471Z,0
2018-10-11T16:53:53.596Z,0
2018-10-11T16:55:03.852Z,0
2018-10-11T16:56:13.969Z,0
2018-10-11T16:57:23.913Z,0
2018-10-11T16:58:34.125Z,0
2018-10-11T16:59:44.237Z,0
2018-10-11T17:00:54.382Z,0
2018-10-11T17:02:04.500Z,0
2018-10-11T17:03:14.609Z,0
2018-10-11T17:04:25.293Z,0
2018-10-11T17:05:35.399Z,0
2018-10-11T17:06:45.491Z,0
2018-10-11T17:07:56.395Z,0
2018-10-11T17:09:08.223Z,0
2018-10-11T17:10:17.597Z,0